Beachburg, Canada
Current Conditions -  °F | °C
As of 12:00 PM on Tuesday 21 Oct 2014 (Local Time) from CYWA Reporting Station
Overcast Overcast  
Wind Chill: 36°   Ceiling: 1700
Heat Index: 41°   Visibility: 9mi
Dew Point: 34°   Wind: 8mph
Humidity: 76%   Direction: 40°NE
Pressure: 30.06"   Gusts: NA
Location:  45.73°N, 76.85°W
Report Text: CYWA 211600Z AUTO 04007KT 360V060 9SM OVC017 05/01 A3006 RMKSLP186
Loading
Personal Weather Stations






























Interactive Weather Map
Tropical Storm Tracking
New forecast layout! Learn more

10-Day Weather Forecast

Advertisements
Track Severe Weather on mobile